sensor_id;sensor_type;location;lat;lon;timestamp;pressure;altitude;pressure_sealevel;temperature;humidity
32642;BME280;19323;56.072;9.698;2023-01-26T00:00:07;101362.97;;;24.70;39.99
32642;BME280;19323;56.072;9.698;2023-01-26T00:02:33;101372.84;;;24.70;39.70
32642;BME280;19323;56.072;9.698;2023-01-26T00:04:58;101364.81;;;24.70;39.96
32642;BME280;19323;56.072;9.698;2023-01-26T00:07:23;101370.19;;;24.70;39.80
32642;BME280;19323;56.072;9.698;2023-01-26T00:09:48;101369.34;;;24.69;39.83
32642;BME280;19323;56.072;9.698;2023-01-26T00:12:13;101367.50;;;24.70;40.01
32642;BME280;19323;56.072;9.698;2023-01-26T00:14:39;101371.16;;;24.68;39.93
32642;BME280;19323;56.072;9.698;2023-01-26T00:17:16;101369.34;;;24.69;39.90
32642;BME280;19323;56.072;9.698;2023-01-26T00:19:49;101365.78;;;24.68;39.94
32642;BME280;19323;56.072;9.698;2023-01-26T00:22:15;101362.28;;;24.68;39.94
32642;BME280;19323;56.072;9.698;2023-01-26T00:24:40;101365.78;;;24.68;39.75
32642;BME280;19323;56.072;9.698;2023-01-26T00:27:05;101361.44;;;24.67;40.00
32642;BME280;19323;56.072;9.698;2023-01-26T00:29:30;101362.28;;;24.68;40.04
32642;BME280;19323;56.072;9.698;2023-01-26T00:31:55;101352.41;;;24.68;39.91
32642;BME280;19323;56.072;9.698;2023-01-26T00:34:21;101347.19;;;24.67;39.94
32642;BME280;19323;56.072;9.698;2023-01-26T00:36:46;101346.19;;;24.68;39.88
32642;BME280;19323;56.072;9.698;2023-01-26T00:39:11;101345.22;;;24.69;40.00
32642;BME280;19323;56.072;9.698;2023-01-26T00:41:36;101340.84;;;24.68;40.12
32642;BME280;19323;56.072;9.698;2023-01-26T00:44:20;101334.63;;;24.67;39.84
32642;BME280;19323;56.072;9.698;2023-01-26T00:46:45;101338.16;;;24.68;40.02
32642;BME280;19323;56.072;9.698;2023-01-26T00:49:10;101335.47;;;24.68;39.84
32642;BME280;19323;56.072;9.698;2023-01-26T00:51:35;101325.78;;;24.67;40.12
32642;BME280;19323;56.072;9.698;2023-01-26T00:54:01;101316.72;;;24.68;39.97
32642;BME280;19323;56.072;9.698;2023-01-26T00:56:26;101317.72;;;24.67;39.96
32642;BME280;19323;56.072;9.698;2023-01-26T00:58:51;101323.09;;;24.67;39.95
32642;BME280;19323;56.072;9.698;2023-01-26T01:01:17;101319.41;;;24.68;40.19
32642;BME280;19323;56.072;9.698;2023-01-26T01:03:42;101320.25;;;24.68;40.10
32642;BME280;19323;56.072;9.698;2023-01-26T01:06:07;101312.38;;;24.67;39.92
32642;BME280;19323;56.072;9.698;2023-01-26T01:08:32;101308.69;;;24.68;39.89
32642;BME280;19323;56.072;9.698;2023-01-26T01:11:15;101308.69;;;24.68;39.91
32642;BME280;19323;56.072;9.698;2023-01-26T01:13:41;101313.09;;;24.69;40.00
32642;BME280;19323;56.072;9.698;2023-01-26T01:16:10;101310.53;;;24.67;39.88
32642;BME280;19323;56.072;9.698;2023-01-26T01:18:36;101314.06;;;24.68;40.00
32642;BME280;19323;56.072;9.698;2023-01-26T01:21:19;101322.09;;;24.68;39.86
32642;BME280;19323;56.072;9.698;2023-01-26T01:23:45;101316.72;;;24.68;40.20
32642;BME280;19323;56.072;9.698;2023-01-26T01:26:11;101314.88;;;24.68;39.96
32642;BME280;19323;56.072;9.698;2023-01-26T01:28:37;101316.72;;;24.68;40.00
32642;BME280;19323;56.072;9.698;2023-01-26T01:31:03;101314.06;;;24.68;40.13
32642;BME280;19323;56.072;9.698;2023-01-26T01:33:28;101314.06;;;24.68;40.03
32642;BME280;19323;56.072;9.698;2023-01-26T01:35:57;101317.72;;;24.67;40.06
32642;BME280;19323;56.072;9.698;2023-01-26T01:38:23;101324.78;;;24.68;39.92
32642;BME280;19323;56.072;9.698;2023-01-26T01:40:48;101317.56;;;24.68;40.09
32642;BME280;19323;56.072;9.698;2023-01-26T01:43:13;101312.22;;;24.68;39.97
32642;BME280;19323;56.072;9.698;2023-01-26T01:45:40;101310.41;;;24.69;40.04
32642;BME280;19323;56.072;9.698;2023-01-26T01:48:08;101314.88;;;24.68;39.93
32642;BME280;19323;56.072;9.698;2023-01-26T01:50:37;101311.38;;;24.68;40.01
32642;BME280;19323;56.072;9.698;2023-01-26T01:53:03;101309.53;;;24.68;40.14
32642;BME280;19323;56.072;9.698;2023-01-26T01:55:29;101321.97;;;24.70;40.02
32642;BME280;19323;56.072;9.698;2023-01-26T01:57:56;101316.59;;;24.70;40.07
32642;BME280;19323;56.072;9.698;2023-01-26T02:00:22;101320.25;;;24.68;40.00
32642;BME280;19323;56.072;9.698;2023-01-26T02:02:49;101310.41;;;24.69;40.07
32642;BME280;19323;56.072;9.698;2023-01-26T02:08:06;101312.22;;;24.68;40.07
32642;BME280;19323;56.072;9.698;2023-01-26T02:10:33;101318.44;;;24.69;40.07
32642;BME280;19323;56.072;9.698;2023-01-26T02:12:59;101313.94;;;24.70;40.15
32642;BME280;19323;56.072;9.698;2023-01-26T02:15:25;101318.44;;;24.69;40.07
32642;BME280;19323;56.072;9.698;2023-01-26T02:17:51;101316.59;;;24.70;40.09
32642;BME280;19323;56.072;9.698;2023-01-26T02:20:21;101305.88;;;24.70;39.95
32642;BME280;19323;56.072;9.698;2023-01-26T02:22:54;101306.72;;;24.70;40.10
32642;BME280;19323;56.072;9.698;2023-01-26T02:27:50;101316.59;;;24.70;40.06
32642;BME280;19323;56.072;9.698;2023-01-26T02:30:15;101313.94;;;24.70;39.94
32642;BME280;19323;56.072;9.698;2023-01-26T02:32:41;101309.53;;;24.68;40.05
32642;BME280;19323;56.072;9.698;2023-01-26T02:35:06;101315.75;;;24.69;40.11
32642;BME280;19323;56.072;9.698;2023-01-26T02:37:32;101313.94;;;24.70;40.09
32642;BME280;19323;56.072;9.698;2023-01-26T02:40:01;101310.41;;;24.69;40.10
32642;BME280;19323;56.072;9.698;2023-01-26T02:42:28;101321.97;;;24.70;39.91
32642;BME280;19323;56.072;9.698;2023-01-26T02:45:03;101310.41;;;24.69;40.09
32642;BME280;19323;56.072;9.698;2023-01-26T02:47:28;101312.22;;;24.68;40.16
32642;BME280;19323;56.072;9.698;2023-01-26T02:49:53;101308.56;;;24.70;39.91
32642;BME280;19323;56.072;9.698;2023-01-26T02:52:20;101305.88;;;24.70;40.03
32642;BME280;19323;56.072;9.698;2023-01-26T02:54:45;101300.53;;;24.70;40.06
32642;BME280;19323;56.072;9.698;2023-01-26T02:57:29;101307.72;;;24.69;40.03
32642;BME280;19323;56.072;9.698;2023-01-26T02:59:55;101310.41;;;24.69;40.16
32642;BME280;19323;56.072;9.698;2023-01-26T03:02:20;101314.75;;;24.70;39.87
32642;BME280;19323;56.072;9.698;2023-01-26T03:04:45;101309.41;;;24.70;39.99
32642;BME280;19323;56.072;9.698;2023-01-26T03:07:10;101307.56;;;24.71;40.02
32642;BME280;19323;56.072;9.698;2023-01-26T03:09:35;101312.91;;;24.71;40.15
32642;BME280;19323;56.072;9.698;2023-01-26T03:12:01;101316.47;;;24.71;39.99
32642;BME280;19323;56.072;9.698;2023-01-26T03:14:26;101319.16;;;24.71;39.90
32642;BME280;19323;56.072;9.698;2023-01-26T03:16:51;101313.78;;;24.71;39.86
32642;BME280;19323;56.072;9.698;2023-01-26T03:19:16;101303.06;;;24.71;39.86
32642;BME280;19323;56.072;9.698;2023-01-26T03:22:00;101310.25;;;24.71;40.03
32642;BME280;19323;56.072;9.698;2023-01-26T03:24:44;101310.25;;;24.71;39.78
32642;BME280;19323;56.072;9.698;2023-01-26T03:27:28;101305.03;;;24.69;39.75
32642;BME280;19323;56.072;9.698;2023-01-26T03:29:54;101312.09;;;24.70;39.85
32642;BME280;19323;56.072;9.698;2023-01-26T03:32:20;101317.44;;;24.70;39.86
32642;BME280;19323;56.072;9.698;2023-01-26T03:34:45;101320.13;;;24.70;39.91
32642;BME280;19323;56.072;9.698;2023-01-26T03:37:10;101317.44;;;24.70;39.89
32642;BME280;19323;56.072;9.698;2023-01-26T03:39:35;101326.31;;;24.71;39.79
32642;BME280;19323;56.072;9.698;2023-01-26T03:42:20;101328.16;;;24.70;39.93
32642;BME280;19323;56.072;9.698;2023-01-26T03:45:04;101321.97;;;24.70;39.92
32642;BME280;19323;56.072;9.698;2023-01-26T03:47:48;101325.59;;;24.68;39.97
32642;BME280;19323;56.072;9.698;2023-01-26T03:50:31;101328.28;;;24.68;39.75
32642;BME280;19323;56.072;9.698;2023-01-26T03:53:16;101329.28;;;24.67;40.01
32642;BME280;19323;56.072;9.698;2023-01-26T03:56:01;101320.41;;;24.67;39.92
32642;BME280;19323;56.072;9.698;2023-01-26T03:58:45;101323.09;;;24.67;40.02
32642;BME280;19323;56.072;9.698;2023-01-26T04:01:11;101316.03;;;24.66;39.94
32642;BME280;19323;56.072;9.698;2023-01-26T04:03:44;101316.91;;;24.66;39.90
32642;BME280;19323;56.072;9.698;2023-01-26T04:06:27;101310.66;;;24.66;39.85
32642;BME280;19323;56.072;9.698;2023-01-26T04:09:11;101317.72;;;24.67;40.21
32642;BME280;19323;56.072;9.698;2023-01-26T04:11:36;101315.06;;;24.67;39.86
32642;BME280;19323;56.072;9.698;2023-01-26T04:14:02;101331.25;;;24.65;40.10
32642;BME280;19323;56.072;9.698;2023-01-26T04:16:45;101316.03;;;24.66;40.05
32642;BME280;19323;56.072;9.698;2023-01-26T04:19:29;101327.59;;;24.66;39.98
32642;BME280;19323;56.072;9.698;2023-01-26T04:22:13;101326.75;;;24.66;40.08
32642;BME280;19323;56.072;9.698;2023-01-26T04:24:39;101323.22;;;24.65;40.01
32642;BME280;19323;56.072;9.698;2023-01-26T04:27:04;101317.03;;;24.65;40.11
32642;BME280;19323;56.072;9.698;2023-01-26T04:29:29;101326.91;;;24.64;40.02
32642;BME280;19323;56.072;9.698;2023-01-26T04:31:54;101315.19;;;24.65;39.93
32642;BME280;19323;56.072;9.698;2023-01-26T04:34:19;101325.91;;;24.65;40.06
32642;BME280;19323;56.072;9.698;2023-01-26T04:36:45;101328.56;;;24.65;40.06
32642;BME280;19323;56.072;9.698;2023-01-26T04:39:10;101330.28;;;24.66;40.01
32642;BME280;19323;56.072;9.698;2023-01-26T04:41:36;101316.03;;;24.66;40.20
32642;BME280;19323;56.072;9.698;2023-01-26T04:44:01;101319.56;;;24.66;40.08
32642;BME280;19323;56.072;9.698;2023-01-26T04:46:26;101325.78;;;24.67;39.94
32642;BME280;19323;56.072;9.698;2023-01-26T04:48:51;101317.72;;;24.67;40.02
32642;BME280;19323;56.072;9.698;2023-01-26T04:51:17;101318.56;;;24.67;40.02
32642;BME280;19323;56.072;9.698;2023-01-26T04:53:44;101311.53;;;24.66;39.90
32642;BME280;19323;56.072;9.698;2023-01-26T04:56:14;101325.59;;;24.68;39.99
32642;BME280;19323;56.072;9.698;2023-01-26T04:58:41;101333.81;;;24.67;40.12
32642;BME280;19323;56.072;9.698;2023-01-26T05:01:07;101324.94;;;24.66;40.12
32642;BME280;19323;56.072;9.698;2023-01-26T05:03:32;101326.75;;;24.66;40.12
32642;BME280;19323;56.072;9.698;2023-01-26T05:05:57;101329.41;;;24.66;40.05
32642;BME280;19323;56.072;9.698;2023-01-26T05:08:22;101328.56;;;24.65;40.13
32642;BME280;19323;56.072;9.698;2023-01-26T05:10:47;101330.41;;;24.65;40.10
32642;BME280;19323;56.072;9.698;2023-01-26T05:13:13;101338.31;;;24.66;40.17
32642;BME280;19323;56.072;9.698;2023-01-26T05:15:38;101345.50;;;24.66;40.12
32642;BME280;19323;56.072;9.698;2023-01-26T05:18:04;101340.13;;;24.66;40.28
32642;BME280;19323;56.072;9.698;2023-01-26T05:20:30;101343.69;;;24.66;40.53
32642;BME280;19323;56.072;9.698;2023-01-26T05:22:55;101345.50;;;24.66;40.14
32642;BME280;19323;56.072;9.698;2023-01-26T05:25:20;101337.44;;;24.66;40.35
32642;BME280;19323;56.072;9.698;2023-01-26T05:27:45;101343.69;;;24.66;40.45
32642;BME280;19323;56.072;9.698;2023-01-26T05:30:11;101348.16;;;24.66;40.46
32642;BME280;19323;56.072;9.698;2023-01-26T05:32:36;101352.69;;;24.65;40.37
32642;BME280;19323;56.072;9.698;2023-01-26T05:35:02;101348.16;;;24.66;40.30
32642;BME280;19323;56.072;9.698;2023-01-26T05:37:28;101343.81;;;24.65;40.24
32642;BME280;19323;56.072;9.698;2023-01-26T05:39:53;101341.97;;;24.65;40.03
32642;BME280;19323;56.072;9.698;2023-01-26T05:42:19;101342.97;;;24.64;40.04
32642;BME280;19323;56.072;9.698;2023-01-26T05:44:44;101346.50;;;24.65;40.01
32642;BME280;19323;56.072;9.698;2023-01-26T05:47:09;101347.31;;;24.65;39.94
32642;BME280;19323;56.072;9.698;2023-01-26T05:49:34;101350.84;;;24.66;39.82
32642;BME280;19323;56.072;9.698;2023-01-26T05:52:06;101350.84;;;24.66;39.69
32642;BME280;19323;56.072;9.698;2023-01-26T05:54:31;101356.19;;;24.66;39.90
32642;BME280;19323;56.072;9.698;2023-01-26T05:56:56;101357.19;;;24.65;39.64
32642;BME280;19323;56.072;9.698;2023-01-26T05:59:22;101353.53;;;24.66;39.76
32642;BME280;19323;56.072;9.698;2023-01-26T06:01:47;101352.41;;;24.68;39.63
32642;BME280;19323;56.072;9.698;2023-01-26T06:04:12;101357.75;;;24.68;39.62
32642;BME280;19323;56.072;9.698;2023-01-26T06:06:37;101354.09;;;24.70;39.69
32642;BME280;19323;56.072;9.698;2023-01-26T06:09:02;101357.63;;;24.70;39.56
32642;BME280;19323;56.072;9.698;2023-01-26T06:11:27;101358.47;;;24.71;39.36
32642;BME280;19323;56.072;9.698;2023-01-26T06:13:53;101356.66;;;24.71;39.42
32642;BME280;19323;56.072;9.698;2023-01-26T06:16:18;101360.03;;;24.73;39.33
32642;BME280;19323;56.072;9.698;2023-01-26T06:18:46;101367.78;;;24.76;39.23
32642;BME280;19323;56.072;9.698;2023-01-26T06:21:11;101365.81;;;24.78;39.39
32642;BME280;19323;56.072;9.698;2023-01-26T06:23:36;101364.81;;;24.79;39.26
32642;BME280;19323;56.072;9.698;2023-01-26T06:26:02;101355.81;;;24.80;39.02
32642;BME280;19323;56.072;9.698;2023-01-26T06:28:27;101362.84;;;24.81;38.96
32642;BME280;19323;56.072;9.698;2023-01-26T06:30:57;101364.56;;;24.82;38.92
32642;BME280;19323;56.072;9.698;2023-01-26T06:33:23;101365.41;;;24.83;39.10
32642;BME280;19323;56.072;9.698;2023-01-26T06:35:48;101369.91;;;24.82;38.95
32642;BME280;19323;56.072;9.698;2023-01-26T06:38:13;101370.63;;;24.84;38.83
32642;BME280;19323;56.072;9.698;2023-01-26T06:40:39;101367.78;;;24.86;38.86
32642;BME280;19323;56.072;9.698;2023-01-26T06:43:04;101379.50;;;24.85;38.94
32642;BME280;19323;56.072;9.698;2023-01-26T06:45:30;101395.59;;;24.85;38.57
32642;BME280;19323;56.072;9.698;2023-01-26T06:47:55;101396.41;;;24.85;38.76
32642;BME280;19323;56.072;9.698;2023-01-26T06:50:21;101406.16;;;24.86;38.86
32642;BME280;19323;56.072;9.698;2023-01-26T06:52:54;101411.38;;;24.88;38.49
32642;BME280;19323;56.072;9.698;2023-01-26T06:55:20;101406.16;;;24.86;38.84
32642;BME280;19323;56.072;9.698;2023-01-26T06:57:47;101411.66;;;24.85;39.24
32642;BME280;19323;56.072;9.698;2023-01-26T07:00:12;101402.91;;;24.83;39.08
32642;BME280;19323;56.072;9.698;2023-01-26T07:02:37;101416.44;;;24.81;39.45
32642;BME280;19323;56.072;9.698;2023-01-26T07:05:03;101414.03;;;24.78;39.31
32642;BME280;19323;56.072;9.698;2023-01-26T07:07:28;101418.56;;;24.78;39.20
32642;BME280;19323;56.072;9.698;2023-01-26T07:09:53;101427.56;;;24.77;39.34
32642;BME280;19323;56.072;9.698;2023-01-26T07:12:18;101423.22;;;24.76;39.50
32642;BME280;19323;56.072;9.698;2023-01-26T07:14:44;101426.00;;;24.74;39.34
32642;BME280;19323;56.072;9.698;2023-01-26T07:17:09;101429.69;;;24.73;39.43
32642;BME280;19323;56.072;9.698;2023-01-26T07:19:34;101433.34;;;24.72;39.36
32642;BME280;19323;56.072;9.698;2023-01-26T07:22:00;101429.81;;;24.72;39.54
32642;BME280;19323;56.072;9.698;2023-01-26T07:24:25;101426.44;;;24.70;39.46
32642;BME280;19323;56.072;9.698;2023-01-26T07:26:51;101424.72;;;24.68;39.53
32642;BME280;19323;56.072;9.698;2023-01-26T07:29:16;101432.75;;;24.68;39.41
32642;BME280;19323;56.072;9.698;2023-01-26T07:31:41;101431.06;;;24.67;39.68
32642;BME280;19323;56.072;9.698;2023-01-26T07:34:08;101432.06;;;24.66;39.72
32642;BME280;19323;56.072;9.698;2023-01-26T07:36:33;101435.59;;;24.67;39.62
32642;BME280;19323;56.072;9.698;2023-01-26T07:38:58;101441.78;;;24.67;39.53
32642;BME280;19323;56.072;9.698;2023-01-26T07:41:23;101446.31;;;24.67;39.67
32642;BME280;19323;56.072;9.698;2023-01-26T07:43:49;101451.66;;;24.67;39.48
32642;BME280;19323;56.072;9.698;2023-01-26T07:46:15;101457.03;;;24.67;39.44
32642;BME280;19323;56.072;9.698;2023-01-26T07:48:40;101451.78;;;24.65;39.53
32642;BME280;19323;56.072;9.698;2023-01-26T07:51:06;101452.63;;;24.66;39.53
32642;BME280;19323;56.072;9.698;2023-01-26T07:53:33;101457.03;;;24.67;39.58
32642;BME280;19323;56.072;9.698;2023-01-26T07:56:07;101462.38;;;24.67;39.56
32642;BME280;19323;56.072;9.698;2023-01-26T07:58:32;101470.25;;;24.68;39.60
32642;BME280;19323;56.072;9.698;2023-01-26T08:01:06;101471.97;;;24.70;39.51
32642;BME280;19323;56.072;9.698;2023-01-26T08:03:31;101461.25;;;24.70;39.80
32642;BME280;19323;56.072;9.698;2023-01-26T08:05:56;101470.13;;;24.70;39.57
32642;BME280;19323;56.072;9.698;2023-01-26T08:08:21;101465.78;;;24.69;39.64
32642;BME280;19323;56.072;9.698;2023-01-26T08:10:47;101465.78;;;24.69;39.60
32642;BME280;19323;56.072;9.698;2023-01-26T08:13:12;101471.13;;;24.69;39.71
32642;BME280;19323;56.072;9.698;2023-01-26T08:15:37;101472.94;;;24.68;39.78
32642;BME280;19323;56.072;9.698;2023-01-26T08:18:02;101470.25;;;24.68;39.60
32642;BME280;19323;56.072;9.698;2023-01-26T08:20:29;101479.16;;;24.69;39.62
32642;BME280;19323;56.072;9.698;2023-01-26T08:22:54;101471.25;;;24.67;39.76
32642;BME280;19323;56.072;9.698;2023-01-26T08:25:20;101473.94;;;24.67;39.61
32642;BME280;19323;56.072;9.698;2023-01-26T08:27:45;101472.09;;;24.68;39.76
32642;BME280;19323;56.072;9.698;2023-01-26T08:30:11;101470.25;;;24.68;39.76
32642;BME280;19323;56.072;9.698;2023-01-26T08:32:36;101465.78;;;24.69;39.77
32642;BME280;19323;56.072;9.698;2023-01-26T08:35:01;101475.50;;;24.70;39.82
32642;BME280;19323;56.072;9.698;2023-01-26T08:37:27;101478.16;;;24.70;39.61
32642;BME280;19323;56.072;9.698;2023-01-26T08:39:52;101489.72;;;24.71;39.65
32642;BME280;19323;56.072;9.698;2023-01-26T08:42:17;101487.91;;;24.71;39.63
32642;BME280;19323;56.072;9.698;2023-01-26T08:44:42;101488.75;;;24.72;39.75
32642;BME280;19323;56.072;9.698;2023-01-26T08:47:07;101486.91;;;24.72;39.72
32642;BME280;19323;56.072;9.698;2023-01-26T08:49:33;101473.66;;;24.71;39.50
32642;BME280;19323;56.072;9.698;2023-01-26T08:51:58;101484.38;;;24.71;39.57
32642;BME280;19323;56.072;9.698;2023-01-26T08:54:23;101485.25;;;24.71;39.63
32642;BME280;19323;56.072;9.698;2023-01-26T08:56:48;101478.16;;;24.70;39.73
32642;BME280;19323;56.072;9.698;2023-01-26T08:59:13;101483.53;;;24.70;39.57
32642;BME280;19323;56.072;9.698;2023-01-26T09:01:39;101487.03;;;24.71;39.94
32642;BME280;19323;56.072;9.698;2023-01-26T09:04:04;101486.22;;;24.70;39.70
32642;BME280;19323;56.072;9.698;2023-01-26T09:06:29;101482.69;;;24.70;39.58
32642;BME280;19323;56.072;9.698;2023-01-26T09:08:56;101487.19;;;24.69;39.84
32642;BME280;19323;56.072;9.698;2023-01-26T09:11:22;101475.50;;;24.70;39.63
32642;BME280;19323;56.072;9.698;2023-01-26T09:13:50;101480.97;;;24.68;39.55
32642;BME280;19323;56.072;9.698;2023-01-26T09:16:20;101488.03;;;24.70;39.44
32642;BME280;19323;56.072;9.698;2023-01-26T09:18:48;101490.59;;;24.71;39.33
32642;BME280;19323;56.072;9.698;2023-01-26T09:21:13;101489.72;;;24.71;39.27
32642;BME280;19323;56.072;9.698;2023-01-26T09:23:38;101501.16;;;24.73;38.93
32642;BME280;19323;56.072;9.698;2023-01-26T09:26:03;101497.50;;;24.74;39.00
32642;BME280;19323;56.072;9.698;2023-01-26T09:28:29;101483.09;;;24.65;39.06
32642;BME280;19323;56.072;9.698;2023-01-26T09:30:54;101498.22;;;24.76;38.80
32642;BME280;19323;56.072;9.698;2023-01-26T09:33:19;101505.13;;;24.78;38.82
32642;BME280;19323;56.072;9.698;2023-01-26T09:35:46;101509.50;;;24.79;38.85
32642;BME280;19323;56.072;9.698;2023-01-26T09:38:12;101505.84;;;24.80;38.63
32642;BME280;19323;56.072;9.698;2023-01-26T09:40:47;101508.41;;;24.82;38.55
32642;BME280;19323;56.072;9.698;2023-01-26T09:43:27;101509.97;;;24.84;38.49
32642;BME280;19323;56.072;9.698;2023-01-26T09:48:32;101517.72;;;24.87;38.48
32642;BME280;19323;56.072;9.698;2023-01-26T09:51:00;101518.44;;;24.90;38.09
32642;BME280;19323;56.072;9.698;2023-01-26T09:53:31;101511.22;;;24.90;38.38
32642;BME280;19323;56.072;9.698;2023-01-26T09:56:01;101518.16;;;24.93;38.06
32642;BME280;19323;56.072;9.698;2023-01-26T09:58:32;101512.81;;;24.93;38.12
32642;BME280;19323;56.072;9.698;2023-01-26T10:01:00;101515.34;;;24.94;38.11
32642;BME280;19323;56.072;9.698;2023-01-26T10:03:40;101521.41;;;24.96;38.03
32642;BME280;19323;56.072;9.698;2023-01-26T10:06:14;101523.97;;;24.98;38.10
32642;BME280;19323;56.072;9.698;2023-01-26T10:08:45;101522.25;;;24.97;38.00
32642;BME280;19323;56.072;9.698;2023-01-26T10:11:13;101522.25;;;24.97;38.14
32642;BME280;19323;56.072;9.698;2023-01-26T10:13:40;101522.25;;;24.97;38.15
32642;BME280;19323;56.072;9.698;2023-01-26T10:16:10;101520.44;;;24.97;38.51
32642;BME280;19323;56.072;9.698;2023-01-26T10:18:36;101523.13;;;24.97;38.56
32642;BME280;19323;56.072;9.698;2023-01-26T10:21:06;101519.56;;;24.97;38.58
32642;BME280;19323;56.072;9.698;2023-01-26T10:23:34;101516.03;;;24.96;38.47
32642;BME280;19323;56.072;9.698;2023-01-26T10:26:12;101524.22;;;24.95;38.62
32642;BME280;19323;56.072;9.698;2023-01-26T10:28:39;101526.91;;;24.95;38.51
32642;BME280;19323;56.072;9.698;2023-01-26T10:31:07;101522.53;;;24.94;38.63
32642;BME280;19323;56.072;9.698;2023-01-26T10:33:35;101526.06;;;24.94;38.57
32642;BME280;19323;56.072;9.698;2023-01-26T10:36:01;101520.69;;;24.94;38.26
32642;BME280;19323;56.072;9.698;2023-01-26T10:43:48;101511.81;;;24.94;38.52
32642;BME280;19323;56.072;9.698;2023-01-26T10:49:03;101525.94;;;24.96;38.58
32642;BME280;19323;56.072;9.698;2023-01-26T10:51:38;101539.31;;;24.96;38.54
32642;BME280;19323;56.072;9.698;2023-01-26T10:54:21;101538.31;;;24.97;38.53
32642;BME280;19323;56.072;9.698;2023-01-26T10:57:02;101537.34;;;24.98;38.74
32642;BME280;19323;56.072;9.698;2023-01-26T10:59:48;101534.69;;;24.98;38.76
32642;BME280;19323;56.072;9.698;2023-01-26T11:04:39;101543.44;;;25.00;38.70
32642;BME280;19323;56.072;9.698;2023-01-26T11:07:25;101548.78;;;25.00;38.88
32642;BME280;19323;56.072;9.698;2023-01-26T11:09:51;101546.94;;;25.00;38.88
32642;BME280;19323;56.072;9.698;2023-01-26T11:12:17;101544.28;;;25.00;38.85
32642;BME280;19323;56.072;9.698;2023-01-26T11:14:46;101547.78;;;25.01;38.94
32642;BME280;19323;56.072;9.698;2023-01-26T11:17:22;101552.19;;;25.02;38.71
32642;BME280;19323;56.072;9.698;2023-01-26T11:19:54;101553.88;;;25.03;38.84
32642;BME280;19323;56.072;9.698;2023-01-26T11:32:37;101565.06;;;25.08;38.46
32642;BME280;19323;56.072;9.698;2023-01-26T11:35:27;101563.06;;;25.10;38.23
32642;BME280;19323;56.072;9.698;2023-01-26T11:40:20;101559.13;;;25.14;38.11
32642;BME280;19323;56.072;9.698;2023-01-26T11:45:55;101559.44;;;25.21;37.89
32642;BME280;19323;56.072;9.698;2023-01-26T11:51:19;101552.69;;;25.26;38.02
32642;BME280;19323;56.072;9.698;2023-01-26T11:54:01;101556.09;;;25.28;37.76
32642;BME280;19323;56.072;9.698;2023-01-26T11:59:23;101561.88;;;25.34;37.70
32642;BME280;19323;56.072;9.698;2023-01-26T12:01:53;101554.41;;;25.37;37.40
32642;BME280;19323;56.072;9.698;2023-01-26T12:04:21;101560.50;;;25.39;37.55
32642;BME280;19323;56.072;9.698;2023-01-26T12:06:52;101554.00;;;25.42;37.34
32642;BME280;19323;56.072;9.698;2023-01-26T12:09:28;101563.59;;;25.44;37.33
32642;BME280;19323;56.072;9.698;2023-01-26T12:12:02;101556.25;;;25.46;37.11
32642;BME280;19323;56.072;9.698;2023-01-26T12:21:59;101573.78;;;25.51;37.15
32642;BME280;19323;56.072;9.698;2023-01-26T12:24:50;101578.13;;;25.52;36.66
32642;BME280;19323;56.072;9.698;2023-01-26T12:27:17;101578.28;;;25.50;36.91
32642;BME280;19323;56.072;9.698;2023-01-26T12:29:48;101575.63;;;25.50;36.95
32642;BME280;19323;56.072;9.698;2023-01-26T12:32:15;101579.97;;;25.51;37.06
32642;BME280;19323;56.072;9.698;2023-01-26T12:34:40;101578.28;;;25.50;37.15
32642;BME280;19323;56.072;9.698;2023-01-26T12:37:12;101572.94;;;25.50;37.13
32642;BME280;19323;56.072;9.698;2023-01-26T12:39:51;101566.84;;;25.48;37.29
32642;BME280;19323;56.072;9.698;2023-01-26T12:42:28;101569.53;;;25.48;37.33
32642;BME280;19323;56.072;9.698;2023-01-26T12:45:00;101566.84;;;25.48;37.31
32642;BME280;19323;56.072;9.698;2023-01-26T12:47:39;101567.81;;;25.47;37.59
32642;BME280;19323;56.072;9.698;2023-01-26T12:52:39;101567.81;;;25.47;37.66
32642;BME280;19323;56.072;9.698;2023-01-26T12:55:11;101555.28;;;25.47;37.56
32642;BME280;19323;56.072;9.698;2023-01-26T12:58:00;101568.53;;;25.49;37.83
32642;BME280;19323;56.072;9.698;2023-01-26T13:00:33;101580.13;;;25.49;37.70
32642;BME280;19323;56.072;9.698;2023-01-26T13:03:33;101586.34;;;25.50;37.78
32642;BME280;19323;56.072;9.698;2023-01-26T13:05:56;101569.41;;;25.49;37.78
32642;BME280;19323;56.072;9.698;2023-01-26T13:10:55;101576.59;;;25.49;37.91
32642;BME280;19323;56.072;9.698;2023-01-26T13:13:28;101583.66;;;25.50;37.97
32642;BME280;19323;56.072;9.698;2023-01-26T13:18:54;101581.94;;;25.49;37.79
32642;BME280;19323;56.072;9.698;2023-01-26T13:21:42;101578.44;;;25.39;37.92
32642;BME280;19323;56.072;9.698;2023-01-26T13:26:49;101592.84;;;25.47;38.09
32642;BME280;19323;56.072;9.698;2023-01-26T13:31:48;101597.50;;;25.45;38.07
32642;BME280;19323;56.072;9.698;2023-01-26T13:34:13;101605.66;;;25.44;38.18
32642;BME280;19323;56.072;9.698;2023-01-26T13:36:40;101615.56;;;25.43;37.91
32642;BME280;19323;56.072;9.698;2023-01-26T13:39:12;101614.69;;;25.43;37.98
32642;BME280;19323;56.072;9.698;2023-01-26T13:41:42;101616.53;;;25.42;38.17
32642;BME280;19323;56.072;9.698;2023-01-26T13:44:13;101622.03;;;25.41;37.98
32642;BME280;19323;56.072;9.698;2023-01-26T13:46:48;101623.00;;;25.40;38.20
32642;BME280;19323;56.072;9.698;2023-01-26T13:49:25;101631.06;;;25.40;38.17
32642;BME280;19323;56.072;9.698;2023-01-26T13:51:51;101635.59;;;25.39;38.10
32642;BME280;19323;56.072;9.698;2023-01-26T13:54:16;101633.03;;;25.38;37.98
32642;BME280;19323;56.072;9.698;2023-01-26T13:56:43;101632.19;;;25.37;38.02